createdAt,value
2019-01-14T00:01:13.453Z,87.80
2019-01-14T00:03:42.706Z,87.70
2019-01-14T00:06:11.844Z,87.20
2019-01-14T00:08:40.988Z,87.80
2019-01-14T00:11:10.211Z,87.70
2019-01-14T00:13:39.363Z,87.90
2019-01-14T00:16:08.560Z,87.50
2019-01-14T00:18:37.767Z,87.50
2019-01-14T00:21:06.985Z,87.80
2019-01-14T00:23:36.120Z,87.20
2019-01-14T00:26:05.708Z,86.90
2019-01-14T00:28:34.866Z,87.00
2019-01-14T00:31:04.012Z,86.90
2019-01-14T00:33:33.167Z,86.00
2019-01-14T00:36:02.320Z,86.60
2019-01-14T00:38:31.873Z,86.00
2019-01-14T00:41:01.265Z,86.30
2019-01-14T00:43:30.539Z,86.00
2019-01-14T00:45:59.773Z,85.90
2019-01-14T00:48:28.980Z,85.20
2019-01-14T00:50:58.120Z,85.10
2019-01-14T00:53:27.329Z,85.10
2019-01-14T00:55:56.496Z,83.90
2019-01-14T00:58:25.637Z,83.60
2019-01-14T01:00:54.873Z,83.80
2019-01-14T01:03:23.996Z,83.90
2019-01-14T01:05:53.224Z,83.20
2019-01-14T01:08:22.379Z,84.00
2019-01-14T01:10:51.636Z,84.00
2019-01-14T01:13:20.865Z,84.10
2019-01-14T01:15:50.032Z,84.30
2019-01-14T01:18:19.257Z,83.80
2019-01-14T01:20:48.591Z,83.80
2019-01-14T01:23:17.729Z,81.70
2019-01-14T01:25:46.881Z,81.60
2019-01-14T01:28:16.028Z,82.60
2019-01-14T01:30:45.240Z,82.40
2019-01-14T01:33:14.513Z,81.70
2019-01-14T01:35:43.659Z,82.10
2019-01-14T01:38:12.983Z,82.40
2019-01-14T01:40:42.136Z,82.90
2019-01-14T01:43:11.608Z,83.40
2019-01-14T01:45:40.759Z,83.80
2019-01-14T01:48:09.924Z,83.90
2019-01-14T01:50:39.048Z,83.60
2019-01-14T01:53:08.371Z,83.80
2019-01-14T01:55:37.501Z,83.80
2019-01-14T01:58:06.689Z,83.10
2019-01-14T02:00:36.042Z,83.40
2019-01-14T02:03:05.268Z,83.80
2019-01-14T02:05:34.506Z,83.80
2019-01-14T02:08:03.653Z,83.50
2019-01-14T02:10:32.846Z,83.60
2019-01-14T02:13:01.980Z,83.10
2019-01-14T02:15:31.124Z,83.40
2019-01-14T02:18:00.256Z,83.70
2019-01-14T02:20:29.400Z,83.60
2019-01-14T02:22:58.517Z,83.50
2019-01-14T02:25:27.761Z,83.60
2019-01-14T02:27:56.900Z,83.70
2019-01-14T02:30:26.057Z,83.70
2019-01-14T02:32:55.204Z,83.30
2019-01-14T02:35:24.348Z,84.20
2019-01-14T02:37:53.498Z,83.90
2019-01-14T02:40:23.296Z,83.70
2019-01-14T02:42:52.459Z,83.70
2019-01-14T02:45:21.609Z,83.90
2019-01-14T02:47:50.751Z,83.70
2019-01-14T02:50:20.040Z,84.30
2019-01-14T02:52:49.216Z,84.10
2019-01-14T02:55:18.540Z,84.50
2019-01-14T02:57:47.676Z,83.60
2019-01-14T03:00:23.308Z,83.80
2019-01-14T03:02:52.580Z,83.30
2019-01-14T03:05:22.081Z,83.30
2019-01-14T03:07:51.439Z,83.00
2019-01-14T03:10:20.569Z,82.70
2019-01-14T03:12:49.728Z,81.80
2019-01-14T03:15:20.141Z,81.90
2019-01-14T03:17:49.349Z,81.30
2019-01-14T03:20:18.604Z,80.90
2019-01-14T03:22:47.746Z,81.00
2019-01-14T03:25:17.574Z,80.60
2019-01-14T03:27:46.728Z,80.60
2019-01-14T03:30:19.350Z,80.00
2019-01-14T03:32:48.682Z,79.40
2019-01-14T03:35:17.827Z,79.60
2019-01-14T03:37:46.980Z,79.90
2019-01-14T03:40:18.064Z,78.90
2019-01-14T03:42:47.335Z,79.70
2019-01-14T03:45:16.466Z,79.90
2019-01-14T03:47:45.661Z,79.90
2019-01-14T03:50:23.212Z,79.70
2019-01-14T03:52:52.463Z,79.00
2019-01-14T03:55:21.599Z,79.70
2019-01-14T03:57:52.937Z,79.30
2019-01-14T04:00:22.405Z,80.60
2019-01-14T04:02:51.514Z,80.30
2019-01-14T04:05:20.692Z,79.90
2019-01-14T04:07:49.832Z,79.80
2019-01-14T04:10:19.287Z,79.40
2019-01-14T04:12:48.535Z,79.20
2019-01-14T04:15:19.444Z,79.10
2019-01-14T04:17:48.663Z,79.30
2019-01-14T04:20:18.953Z,78.80
2019-01-14T04:22:48.371Z,78.90
2019-01-14T04:25:17.527Z,79.10
2019-01-14T04:27:46.647Z,79.10
2019-01-14T04:30:18.862Z,78.70
2019-01-14T04:32:48.010Z,78.60
2019-01-14T04:35:17.484Z,78.00
2019-01-14T04:37:46.617Z,78.00
2019-01-14T04:40:16.197Z,77.50
2019-01-14T04:42:45.349Z,77.60
2019-01-14T04:45:14.936Z,76.80
2019-01-14T04:47:44.098Z,76.50
2019-01-14T04:50:15.966Z,75.70
2019-01-14T04:52:45.099Z,75.40
2019-01-14T04:55:14.807Z,75.30
2019-01-14T04:57:43.951Z,75.30
2019-01-14T05:00:17.041Z,75.40
2019-01-14T05:02:46.413Z,74.60
2019-01-14T05:05:16.340Z,74.50
2019-01-14T05:07:45.626Z,75.40
2019-01-14T05:10:15.845Z,75.30
2019-01-14T05:12:45.016Z,75.40
2019-01-14T05:15:14.348Z,75.50
2019-01-14T05:17:43.548Z,75.50
2019-01-14T05:20:24.326Z,75.50
2019-01-14T05:22:54.398Z,75.50
2019-01-14T05:25:23.617Z,75.90
2019-01-14T05:27:52.764Z,75.40
2019-01-14T05:30:22.009Z,75.50
2019-01-14T05:32:51.173Z,74.90
2019-01-14T05:35:20.307Z,75.30
2019-01-14T05:37:49.464Z,74.90
2019-01-14T05:40:24.162Z,75.40
2019-01-14T05:42:53.440Z,75.20
2019-01-14T05:45:22.567Z,75.10
2019-01-14T05:47:51.708Z,75.00
2019-01-14T05:50:20.946Z,75.20
2019-01-14T05:52:50.149Z,75.60
2019-01-14T05:55:19.264Z,76.10
2019-01-14T05:57:48.458Z,76.30
2019-01-14T06:00:23.662Z,76.50
2019-01-14T06:02:52.969Z,75.60
2019-01-14T06:05:22.104Z,76.10
2019-01-14T06:07:51.459Z,76.40
2019-01-14T06:10:20.631Z,76.30
2019-01-14T06:12:49.761Z,76.70
2019-01-14T06:15:19.501Z,76.50
2019-01-14T06:17:48.624Z,76.80
2019-01-14T06:20:18.948Z,77.10
2019-01-14T06:22:48.144Z,77.60
2019-01-14T06:25:17.744Z,77.20
2019-01-14T06:27:46.921Z,77.10
2019-01-14T06:30:21.274Z,76.80
2019-01-14T06:32:50.435Z,77.00
2019-01-14T06:35:19.795Z,77.10
2019-01-14T06:37:52.509Z,77.00
2019-01-14T06:40:20.629Z,77.30
2019-01-14T06:42:49.805Z,77.40
2019-01-14T06:45:19.004Z,76.80
2019-01-14T06:47:48.223Z,77.00
2019-01-14T06:50:18.595Z,77.40
2019-01-14T06:52:48.165Z,76.50
2019-01-14T06:55:17.828Z,76.60
2019-01-14T06:57:47.187Z,76.30
2019-01-14T07:00:22.183Z,77.20
2019-01-14T07:02:51.504Z,76.60
2019-01-14T07:05:21.069Z,76.70
2019-01-14T07:07:50.298Z,76.30
2019-01-14T07:10:22.392Z,76.80
2019-01-14T07:12:51.730Z,77.00
2019-01-14T07:15:20.869Z,77.60
2019-01-14T07:17:50.019Z,77.50
2019-01-14T07:20:19.883Z,77.50
2019-01-14T07:22:49.271Z,77.10
2019-01-14T07:25:18.651Z,77.20
2019-01-14T07:27:47.885Z,77.50
2019-01-14T07:30:19.009Z,77.60
2019-01-14T07:32:48.156Z,77.30
2019-01-14T07:35:17.604Z,76.80
2019-01-14T07:37:47.405Z,77.40
2019-01-14T07:40:17.427Z,77.10
2019-01-14T07:42:46.597Z,76.80
2019-01-14T07:45:17.583Z,76.70
2019-01-14T07:47:46.723Z,76.70
2019-01-14T07:50:16.739Z,76.40
2019-01-14T07:52:45.888Z,76.20
2019-01-14T07:55:15.055Z,76.00
2019-01-14T07:57:44.249Z,76.30
2019-01-14T08:00:19.600Z,75.80
2019-01-14T08:02:48.750Z,75.80
2019-01-14T08:05:17.956Z,75.60
2019-01-14T08:07:47.152Z,75.50
2019-01-14T08:10:16.304Z,75.50
2019-01-14T08:12:45.452Z,75.20
2019-01-14T08:15:16.757Z,75.30
2019-01-14T08:17:45.944Z,75.70
2019-01-14T08:20:15.292Z,75.80
2019-01-14T08:22:44.449Z,75.70
2019-01-14T08:25:13.852Z,75.50
2019-01-14T08:27:43.191Z,75.50
2019-01-14T08:30:15.340Z,75.50
2019-01-14T08:32:44.478Z,75.10
2019-01-14T08:35:14.133Z,75.30
2019-01-14T08:37:43.264Z,75.30
2019-01-14T08:40:13.190Z,75.20
2019-01-14T08:42:42.401Z,74.70
2019-01-14T08:45:12.147Z,75.20
2019-01-14T08:47:41.295Z,75.00
2019-01-14T08:50:19.305Z,74.70
2019-01-14T08:52:48.430Z,74.60
2019-01-14T08:55:17.745Z,74.80
2019-01-14T08:57:54.237Z,74.60
2019-01-14T09:00:20.181Z,74.50
2019-01-14T09:02:49.427Z,74.40
2019-01-14T09:05:18.600Z,74.10
2019-01-14T09:07:47.755Z,74.30
2019-01-14T09:10:20.344Z,74.50
2019-01-14T09:12:49.496Z,74.20
2019-01-14T09:15:18.861Z,74.10
2019-01-14T09:17:48.300Z,74.00
2019-01-14T09:20:19.307Z,73.90
2019-01-14T09:22:48.567Z,73.60
2019-01-14T09:25:17.685Z,73.70
2019-01-14T09:27:46.922Z,73.80
2019-01-14T09:30:18.537Z,74.00
2019-01-14T09:32:47.809Z,74.50
2019-01-14T09:35:16.959Z,74.20
2019-01-14T09:37:46.107Z,74.10
2019-01-14T09:40:17.160Z,74.20
2019-01-14T09:42:46.360Z,74.70
2019-01-14T09:45:15.486Z,74.40
2019-01-14T09:47:44.636Z,73.70
2019-01-14T09:50:14.760Z,73.60
2019-01-14T09:52:43.909Z,73.60
2019-01-14T09:55:17.956Z,73.70
2019-01-14T09:57:48.364Z,73.00
2019-01-14T10:00:17.724Z,73.70
2019-01-14T10:02:47.413Z,73.80
2019-01-14T10:05:19.083Z,73.20
2019-01-14T10:07:48.256Z,72.70
2019-01-14T10:10:18.481Z,73.30
2019-01-14T10:12:47.922Z,72.50
2019-01-14T10:15:22.281Z,72.40
2019-01-14T10:18:00.434Z,72.70
2019-01-14T10:20:29.564Z,73.60
2019-01-14T10:22:59.034Z,73.20
2019-01-14T10:25:28.181Z,72.30
2019-01-14T10:27:57.337Z,74.40
2019-01-14T10:30:26.487Z,72.50
2019-01-14T10:32:55.734Z,74.10
2019-01-14T10:35:25.000Z,74.50
2019-01-14T10:37:54.136Z,75.50
2019-01-14T10:40:23.551Z,74.80
2019-01-14T10:42:52.797Z,74.60
2019-01-14T10:45:23.380Z,74.80
2019-01-14T10:47:52.536Z,74.80
2019-01-14T10:50:22.169Z,73.90
2019-01-14T10:52:51.294Z,73.50
2019-01-14T10:55:20.520Z,73.20
2019-01-14T10:57:49.645Z,73.60
2019-01-14T11:00:21.318Z,73.10
2019-01-14T11:02:50.562Z,72.60
2019-01-14T11:05:23.419Z,72.50
2019-01-14T11:07:52.838Z,71.30
2019-01-14T11:10:22.012Z,72.00
2019-01-14T11:12:51.547Z,71.90
2019-01-14T11:15:21.135Z,70.80
2019-01-14T11:17:50.535Z,71.50
2019-01-14T11:20:22.573Z,71.30
2019-01-14T11:22:51.818Z,72.30
2019-01-14T11:25:21.053Z,71.60
2019-01-14T11:27:50.349Z,70.90
2019-01-14T11:30:22.513Z,70.50
2019-01-14T11:32:51.712Z,70.30
2019-01-14T11:35:20.873Z,70.70
2019-01-14T11:37:50.024Z,70.90
2019-01-14T11:40:24.951Z,71.60
2019-01-14T11:42:54.116Z,71.50
2019-01-14T11:45:23.255Z,71.10
2019-01-14T11:47:52.391Z,71.30
2019-01-14T11:50:21.536Z,71.50
2019-01-14T11:52:50.900Z,71.70
2019-01-14T11:55:20.136Z,71.60
2019-01-14T11:57:49.296Z,72.00
2019-01-14T12:00:23.943Z,71.30
2019-01-14T12:02:53.651Z,71.20
2019-01-14T12:05:23.072Z,69.90
2019-01-14T12:07:52.309Z,69.30
2019-01-14T12:10:21.554Z,69.80
2019-01-14T12:12:50.768Z,67.80
2019-01-14T12:15:25.369Z,68.70
2019-01-14T12:17:54.518Z,69.90
2019-01-14T12:20:23.791Z,69.10
2019-01-14T12:22:52.974Z,69.60
2019-01-14T12:25:22.119Z,68.50
2019-01-14T12:27:51.283Z,68.60
2019-01-14T12:30:26.734Z,69.90
2019-01-14T12:32:55.959Z,69.70
2019-01-14T12:35:25.137Z,69.50
2019-01-14T12:37:54.293Z,70.10
2019-01-14T12:40:25.211Z,71.20
2019-01-14T12:42:54.302Z,71.40
2019-01-14T12:45:24.577Z,70.30
2019-01-14T12:47:53.715Z,70.00
2019-01-14T12:50:22.937Z,70.40
2019-01-14T12:52:52.156Z,70.50
2019-01-14T12:55:21.331Z,70.70
2019-01-14T12:57:50.470Z,70.20
2019-01-14T13:00:30.215Z,69.00
2019-01-14T13:02:59.520Z,68.50
2019-01-14T13:05:30.161Z,68.80
2019-01-14T13:07:59.523Z,68.10
2019-01-14T13:10:28.865Z,66.50
2019-01-14T13:12:58.038Z,65.70
2019-01-14T13:15:28.773Z,67.10
2019-01-14T13:17:57.957Z,68.00
2019-01-14T13:20:27.408Z,69.70
2019-01-14T13:22:56.613Z,71.60
2019-01-14T13:25:25.888Z,74.00
2019-01-14T13:27:55.343Z,75.70
2019-01-14T13:30:30.049Z,78.90
2019-01-14T13:33:00.436Z,80.60
2019-01-14T13:35:29.727Z,78.60
2019-01-14T13:37:59.402Z,79.30
2019-01-14T13:40:28.574Z,79.10
2019-01-14T13:42:57.829Z,79.20
2019-01-14T13:45:27.060Z,78.80
2019-01-14T13:47:56.368Z,78.90
2019-01-14T13:50:26.983Z,79.00
2019-01-14T13:52:56.129Z,78.10
2019-01-14T13:55:25.673Z,78.30
2019-01-14T13:57:59.715Z,78.00
2019-01-14T14:00:27.052Z,78.60
2019-01-14T14:02:56.293Z,78.80
2019-01-14T14:05:25.568Z,78.70
2019-01-14T14:07:54.795Z,79.20
2019-01-14T14:10:34.873Z,79.30
2019-01-14T14:13:04.093Z,79.00
2019-01-14T14:15:33.368Z,79.30
2019-01-14T14:18:02.593Z,79.30
2019-01-14T14:20:31.756Z,77.80
2019-01-14T14:23:00.894Z,79.10
2019-01-14T14:25:30.012Z,79.00
2019-01-14T14:27:59.196Z,79.10
2019-01-14T14:30:31.609Z,79.30
2019-01-14T14:33:00.963Z,78.80
2019-01-14T14:35:30.112Z,78.20
2019-01-14T14:38:01.198Z,78.70
2019-01-14T14:40:30.258Z,78.50
2019-01-14T14:42:59.637Z,78.50
2019-01-14T14:45:28.910Z,78.70
2019-01-14T14:47:58.196Z,78.10
2019-01-14T14:50:27.342Z,78.10
2019-01-14T14:52:56.585Z,77.80
2019-01-14T14:55:25.728Z,78.10
2019-01-14T14:57:55.044Z,78.00
2019-01-14T15:00:24.323Z,77.30
2019-01-14T15:02:53.573Z,77.90
2019-01-14T15:05:22.745Z,77.10
2019-01-14T15:07:51.977Z,77.60
2019-01-14T15:10:22.545Z,77.60
2019-01-14T15:12:51.908Z,77.50
2019-01-14T15:15:24.612Z,77.50
2019-01-14T15:17:53.831Z,77.70
2019-01-14T15:20:24.702Z,77.90
2019-01-14T15:22:53.836Z,77.70
2019-01-14T15:25:22.971Z,78.10
2019-01-14T15:27:52.189Z,78.20
2019-01-14T15:30:26.635Z,78.60
2019-01-14T15:32:55.766Z,78.50
2019-01-14T15:35:25.087Z,78.60
2019-01-14T15:37:54.245Z,79.10
2019-01-14T15:40:24.520Z,79.00
2019-01-14T15:42:54.044Z,79.50
2019-01-14T15:45:25.118Z,79.60
2019-01-14T15:47:54.373Z,79.60
2019-01-14T15:50:23.592Z,78.90
2019-01-14T15:52:52.743Z,79.40
2019-01-14T15:55:24.597Z,79.30
2019-01-14T15:57:53.833Z,79.60
2019-01-14T16:00:23.008Z,80.20
2019-01-14T16:02:52.332Z,79.90
2019-01-14T16:05:21.489Z,80.30
2019-01-14T16:07:50.869Z,80.30
2019-01-14T16:10:25.027Z,80.20
2019-01-14T16:12:54.276Z,79.80
2019-01-14T16:15:23.763Z,79.90
2019-01-14T16:17:52.918Z,79.80
2019-01-14T16:20:26.589Z,79.70
2019-01-14T16:22:55.895Z,79.60
2019-01-14T16:25:25.128Z,79.40
2019-01-14T16:27:54.307Z,78.90
2019-01-14T16:30:25.513Z,79.00
2019-01-14T16:32:54.677Z,78.90
2019-01-14T16:35:23.928Z,79.00
2019-01-14T16:37:53.092Z,79.10
2019-01-14T16:40:22.353Z,79.10
2019-01-14T16:42:51.512Z,79.20
2019-01-14T16:45:25.729Z,79.00
2019-01-14T16:47:55.417Z,79.20
2019-01-14T16:50:24.859Z,79.40
2019-01-14T16:52:54.596Z,79.40
2019-01-14T16:55:52.120Z,79.50
2019-01-14T16:58:21.403Z,79.20
2019-01-14T17:00:51.040Z,79.40
2019-01-14T17:03:20.372Z,79.20
2019-01-14T17:05:50.211Z,79.50
2019-01-14T17:08:19.477Z,79.20
2019-01-14T17:10:48.609Z,79.40
2019-01-14T17:13:17.771Z,79.60
2019-01-14T17:15:46.904Z,79.60
2019-01-14T17:18:16.067Z,80.10
2019-01-14T17:20:45.220Z,79.80
2019-01-14T17:23:14.455Z,80.10
2019-01-14T17:25:43.737Z,79.70
2019-01-14T17:28:12.961Z,79.90
2019-01-14T17:30:42.109Z,80.50
2019-01-14T17:33:11.270Z,79.80
2019-01-14T17:35:40.449Z,80.10
2019-01-14T17:38:09.628Z,80.50
2019-01-14T17:40:38.911Z,80.70
2019-01-14T17:43:08.040Z,80.60
2019-01-14T17:45:37.408Z,80.40
2019-01-14T17:48:06.801Z,80.40
2019-01-14T17:50:36.191Z,80.60
2019-01-14T17:53:05.973Z,79.80
2019-01-14T17:55:35.217Z,79.70
2019-01-14T17:58:04.701Z,79.60
2019-01-14T18:00:34.120Z,79.10
2019-01-14T18:03:04.646Z,79.40
2019-01-14T18:05:34.118Z,79.00
2019-01-14T18:08:03.556Z,78.80
2019-01-14T18:10:39.698Z,79.00
2019-01-14T18:13:03.717Z,79.10
2019-01-14T18:15:33.000Z,78.70
2019-01-14T18:18:02.149Z,78.90
2019-01-14T18:20:31.337Z,78.50
2019-01-14T18:23:00.502Z,78.60
2019-01-14T18:25:29.668Z,78.60
2019-01-14T18:27:58.898Z,78.80
2019-01-14T18:30:28.162Z,78.40
2019-01-14T18:32:57.532Z,78.50
2019-01-14T18:35:26.695Z,78.40
2019-01-14T18:37:55.970Z,78.30
2019-01-14T18:40:25.442Z,77.50
2019-01-14T18:42:54.772Z,77.30
2019-01-14T18:45:24.213Z,77.50
2019-01-14T18:47:53.389Z,77.70
2019-01-14T18:50:23.506Z,77.70
2019-01-14T18:52:52.672Z,77.60
2019-01-14T18:55:21.846Z,77.70
2019-01-14T18:57:51.049Z,77.40
2019-01-14T19:00:22.030Z,77.10
2019-01-14T19:02:51.242Z,77.30
2019-01-14T19:05:20.468Z,77.20
2019-01-14T19:07:50.016Z,77.60
2019-01-14T19:10:19.142Z,77.70
2019-01-14T19:12:48.501Z,77.80
2019-01-14T19:15:19.525Z,77.40
2019-01-14T19:17:49.224Z,77.40
2019-01-14T19:20:20.975Z,76.40
2019-01-14T19:22:50.224Z,76.60
2019-01-14T19:25:19.560Z,76.00
2019-01-14T19:27:48.734Z,75.10
2019-01-14T19:30:19.314Z,75.80
2019-01-14T19:32:48.457Z,75.20
2019-01-14T19:35:17.880Z,74.60
2019-01-14T19:37:47.274Z,74.70
2019-01-14T19:40:18.695Z,74.50
2019-01-14T19:42:48.153Z,74.00
2019-01-14T19:45:19.207Z,73.90
2019-01-14T19:47:48.355Z,73.70
2019-01-14T19:50:22.747Z,74.00
2019-01-14T19:52:52.388Z,73.80
2019-01-14T19:55:21.745Z,74.00
2019-01-14T19:57:52.379Z,74.20
2019-01-14T20:00:28.313Z,74.30
2019-01-14T20:02:57.813Z,74.30
2019-01-14T20:05:27.093Z,74.40
2019-01-14T20:07:56.620Z,74.40
2019-01-14T20:10:25.815Z,74.50
2019-01-14T20:12:55.964Z,74.70
2019-01-14T20:15:25.149Z,75.00
2019-01-14T20:17:54.316Z,74.70
2019-01-14T20:20:23.457Z,74.30
2019-01-14T20:22:52.733Z,73.90
2019-01-14T20:25:22.041Z,73.20
2019-01-14T20:27:51.183Z,72.70
2019-01-14T20:30:24.436Z,72.30
2019-01-14T20:32:53.688Z,72.20
2019-01-14T20:35:22.963Z,71.80
2019-01-14T20:37:52.196Z,71.90
2019-01-14T20:40:21.366Z,71.40
2019-01-14T20:42:50.538Z,70.80
2019-01-14T20:45:19.821Z,71.00
2019-01-14T20:47:49.483Z,70.80
2019-01-14T20:50:20.185Z,70.70
2019-01-14T20:52:49.434Z,71.10
2019-01-14T20:55:18.582Z,71.00
2019-01-14T20:57:47.816Z,70.90
2019-01-14T21:00:23.009Z,71.50
2019-01-14T21:02:52.535Z,71.70
2019-01-14T21:05:22.414Z,71.80
2019-01-14T21:07:53.579Z,72.00
2019-01-14T21:10:23.274Z,72.80
2019-01-14T21:12:52.609Z,72.20
2019-01-14T21:15:21.846Z,72.40
2019-01-14T21:17:51.025Z,72.10
2019-01-14T21:20:22.244Z,72.10
2019-01-14T21:22:52.084Z,72.20
2019-01-14T21:25:21.307Z,71.80
2019-01-14T21:27:50.689Z,71.90
2019-01-14T21:30:24.948Z,71.60
2019-01-14T21:32:54.100Z,71.30
2019-01-14T21:35:23.504Z,71.50
2019-01-14T21:37:54.746Z,71.30
2019-01-14T21:40:23.916Z,71.40
2019-01-14T21:42:53.046Z,71.30
2019-01-14T21:45:22.405Z,71.40
2019-01-14T21:47:51.592Z,70.60
2019-01-14T21:50:21.084Z,70.20
2019-01-14T21:52:50.390Z,70.20
2019-01-14T21:55:21.760Z,70.20
2019-01-14T21:57:50.962Z,70.90
2019-01-14T22:00:22.110Z,70.70
2019-01-14T22:02:51.481Z,71.70
2019-01-14T22:05:21.053Z,72.10
2019-01-14T22:07:50.253Z,73.00
2019-01-14T22:10:24.994Z,73.20
2019-01-14T22:12:54.325Z,73.30
2019-01-14T22:15:23.699Z,72.90
2019-01-14T22:17:52.861Z,73.40
2019-01-14T22:20:24.307Z,73.00
2019-01-14T22:22:53.757Z,72.50
2019-01-14T22:25:23.163Z,72.70
2019-01-14T22:27:52.326Z,72.40
2019-01-14T22:30:27.295Z,72.50
2019-01-14T22:32:56.725Z,72.10
2019-01-14T22:35:25.873Z,72.10
2019-01-14T22:37:55.028Z,71.70
2019-01-14T22:40:24.163Z,71.40
2019-01-14T22:42:53.330Z,71.50
2019-01-14T22:45:22.499Z,72.30
2019-01-14T22:47:51.722Z,72.60
2019-01-14T22:50:20.884Z,73.10
2019-01-14T22:52:50.054Z,74.00
2019-01-14T22:55:19.206Z,74.30
2019-01-14T22:57:48.372Z,75.20
2019-01-14T23:00:27.755Z,75.30
2019-01-14T23:02:56.991Z,75.60
2019-01-14T23:05:26.124Z,75.70
2019-01-14T23:07:55.275Z,75.90
2019-01-14T23:10:24.440Z,76.20
2019-01-14T23:12:53.602Z,76.10
2019-01-14T23:15:22.735Z,76.40
2019-01-14T23:17:51.893Z,76.80
2019-01-14T23:20:21.017Z,76.80
2019-01-14T23:22:50.232Z,77.30
2019-01-14T23:25:19.401Z,77.50
2019-01-14T23:27:48.540Z,77.80
2019-01-14T23:30:17.696Z,77.50
2019-01-14T23:32:46.868Z,77.70
2019-01-14T23:35:16.057Z,78.10
2019-01-14T23:37:45.258Z,78.00
2019-01-14T23:40:14.524Z,78.00
2019-01-14T23:42:43.756Z,78.50
2019-01-14T23:45:13.142Z,77.80
2019-01-14T23:47:42.276Z,78.00
2019-01-14T23:50:11.681Z,78.00
2019-01-14T23:52:40.872Z,78.00
2019-01-14T23:55:10.088Z,78.20
2019-01-14T23:57:39.320Z,78.00
